sensor_id;sensor_type;location;lat;lon;timestamp;P1;durP1;ratioP1;P2;durP2;ratioP2
36575;SDS011;45700;50.930;5.168;2022-09-24T00:01:20;17.00;;;10.20;;
36575;SDS011;45700;50.930;5.168;2022-09-24T00:05:21;21.17;;;10.70;;
36575;SDS011;45700;50.930;5.168;2022-09-24T00:09:22;17.33;;;10.40;;
36575;SDS011;45700;50.930;5.168;2022-09-24T00:13:23;19.35;;;10.85;;
36575;SDS011;45700;50.930;5.168;2022-09-24T00:17:24;19.15;;;10.65;;
36575;SDS011;45700;50.930;5.168;2022-09-24T00:21:27;20.10;;;10.20;;
36575;SDS011;45700;50.930;5.168;2022-09-24T00:25:28;18.35;;;10.23;;
36575;SDS011;45700;50.930;5.168;2022-09-24T00:29:48;16.27;;;9.60;;
36575;SDS011;45700;50.930;5.168;2022-09-24T00:33:49;20.38;;;9.90;;
36575;SDS011;45700;50.930;5.168;2022-09-24T00:37:51;16.52;;;10.20;;
36575;SDS011;45700;50.930;5.168;2022-09-24T00:41:52;20.08;;;10.55;;
36575;SDS011;45700;50.930;5.168;2022-09-24T00:46:14;17.38;;;10.27;;
36575;SDS011;45700;50.930;5.168;2022-09-24T00:50:21;17.42;;;9.25;;
36575;SDS011;45700;50.930;5.168;2022-09-24T00:54:24;17.83;;;9.80;;
36575;SDS011;45700;50.930;5.168;2022-09-24T00:58:27;15.07;;;9.52;;
36575;SDS011;45700;50.930;5.168;2022-09-24T01:02:30;14.02;;;9.07;;
36575;SDS011;45700;50.930;5.168;2022-09-24T01:06:31;16.83;;;10.50;;
36575;SDS011;45700;50.930;5.168;2022-09-24T01:10:37;14.52;;;8.80;;
36575;SDS011;45700;50.930;5.168;2022-09-24T01:19:06;15.65;;;9.48;;
36575;SDS011;45700;50.930;5.168;2022-09-24T01:27:16;18.58;;;9.82;;
36575;SDS011;45700;50.930;5.168;2022-09-24T01:31:28;16.23;;;9.48;;
36575;SDS011;45700;50.930;5.168;2022-09-24T01:36:03;18.35;;;9.00;;
36575;SDS011;45700;50.930;5.168;2022-09-24T01:39:57;19.02;;;9.23;;
36575;SDS011;45700;50.930;5.168;2022-09-24T01:43:59;18.83;;;10.15;;
36575;SDS011;45700;50.930;5.168;2022-09-24T01:48:04;16.08;;;9.52;;
36575;SDS011;45700;50.930;5.168;2022-09-24T01:52:06;16.10;;;9.23;;
36575;SDS011;45700;50.930;5.168;2022-09-24T01:56:13;18.65;;;9.57;;
36575;SDS011;45700;50.930;5.168;2022-09-24T02:00:18;19.27;;;9.60;;
36575;SDS011;45700;50.930;5.168;2022-09-24T02:04:21;17.52;;;9.55;;
36575;SDS011;45700;50.930;5.168;2022-09-24T02:08:25;17.88;;;10.18;;
36575;SDS011;45700;50.930;5.168;2022-09-24T02:12:32;15.40;;;9.77;;
36575;SDS011;45700;50.930;5.168;2022-09-24T02:16:39;16.40;;;9.40;;
36575;SDS011;45700;50.930;5.168;2022-09-24T02:20:41;15.50;;;9.90;;
36575;SDS011;45700;50.930;5.168;2022-09-24T02:24:44;19.27;;;9.70;;
36575;SDS011;45700;50.930;5.168;2022-09-24T02:28:48;17.23;;;9.02;;
36575;SDS011;45700;50.930;5.168;2022-09-24T02:32:49;15.05;;;9.30;;
36575;SDS011;45700;50.930;5.168;2022-09-24T02:40:51;16.70;;;9.77;;
36575;SDS011;45700;50.930;5.168;2022-09-24T02:44:53;17.75;;;9.52;;
36575;SDS011;45700;50.930;5.168;2022-09-24T02:48:56;14.98;;;9.30;;
36575;SDS011;45700;50.930;5.168;2022-09-24T02:52:57;17.33;;;10.60;;
36575;SDS011;45700;50.930;5.168;2022-09-24T02:56:58;19.20;;;10.57;;
36575;SDS011;45700;50.930;5.168;2022-09-24T03:00:59;19.73;;;9.90;;
36575;SDS011;45700;50.930;5.168;2022-09-24T03:05:00;16.13;;;9.50;;
36575;SDS011;45700;50.930;5.168;2022-09-24T03:09:01;16.85;;;9.27;;
36575;SDS011;45700;50.930;5.168;2022-09-24T03:13:03;16.38;;;9.77;;
36575;SDS011;45700;50.930;5.168;2022-09-24T03:17:03;20.10;;;10.98;;
36575;SDS011;45700;50.930;5.168;2022-09-24T03:21:06;20.75;;;10.32;;
36575;SDS011;45700;50.930;5.168;2022-09-24T03:25:10;18.10;;;10.15;;
36575;SDS011;45700;50.930;5.168;2022-09-24T03:29:11;18.05;;;9.98;;
36575;SDS011;45700;50.930;5.168;2022-09-24T03:33:12;19.75;;;10.82;;
36575;SDS011;45700;50.930;5.168;2022-09-24T03:37:13;20.58;;;10.55;;
36575;SDS011;45700;50.930;5.168;2022-09-24T03:41:14;17.40;;;9.13;;
36575;SDS011;45700;50.930;5.168;2022-09-24T03:45:15;22.10;;;10.25;;
36575;SDS011;45700;50.930;5.168;2022-09-24T03:49:16;16.20;;;9.60;;
36575;SDS011;45700;50.930;5.168;2022-09-24T03:53:18;18.08;;;10.30;;
36575;SDS011;45700;50.930;5.168;2022-09-24T03:57:19;23.35;;;10.23;;
36575;SDS011;45700;50.930;5.168;2022-09-24T04:01:20;17.75;;;10.45;;
36575;SDS011;45700;50.930;5.168;2022-09-24T04:05:21;19.75;;;10.77;;
36575;SDS011;45700;50.930;5.168;2022-09-24T04:09:22;16.77;;;9.57;;
36575;SDS011;45700;50.930;5.168;2022-09-24T04:13:23;16.67;;;9.93;;
36575;SDS011;45700;50.930;5.168;2022-09-24T04:17:24;17.40;;;9.93;;
36575;SDS011;45700;50.930;5.168;2022-09-24T04:21:28;17.65;;;10.40;;
36575;SDS011;45700;50.930;5.168;2022-09-24T04:25:30;19.63;;;10.02;;
36575;SDS011;45700;50.930;5.168;2022-09-24T04:29:31;17.42;;;10.38;;
36575;SDS011;45700;50.930;5.168;2022-09-24T04:33:32;19.00;;;10.43;;
36575;SDS011;45700;50.930;5.168;2022-09-24T04:37:33;18.70;;;10.93;;
36575;SDS011;45700;50.930;5.168;2022-09-24T04:41:36;20.42;;;10.32;;
36575;SDS011;45700;50.930;5.168;2022-09-24T04:45:37;17.63;;;10.20;;
36575;SDS011;45700;50.930;5.168;2022-09-24T04:49:38;15.20;;;9.35;;
36575;SDS011;45700;50.930;5.168;2022-09-24T04:53:39;19.15;;;11.05;;
36575;SDS011;45700;50.930;5.168;2022-09-24T04:57:40;21.55;;;10.70;;
36575;SDS011;45700;50.930;5.168;2022-09-24T05:01:41;20.55;;;11.07;;
36575;SDS011;45700;50.930;5.168;2022-09-24T05:05:42;19.75;;;10.23;;
36575;SDS011;45700;50.930;5.168;2022-09-24T05:09:43;18.40;;;10.38;;
36575;SDS011;45700;50.930;5.168;2022-09-24T05:13:44;20.77;;;10.93;;
36575;SDS011;45700;50.930;5.168;2022-09-24T05:17:45;19.92;;;10.18;;
36575;SDS011;45700;50.930;5.168;2022-09-24T05:21:46;21.02;;;10.95;;
36575;SDS011;45700;50.930;5.168;2022-09-24T05:25:47;21.13;;;10.88;;
36575;SDS011;45700;50.930;5.168;2022-09-24T05:30:07;16.90;;;9.52;;
36575;SDS011;45700;50.930;5.168;2022-09-24T05:34:08;18.35;;;10.05;;
36575;SDS011;45700;50.930;5.168;2022-09-24T05:38:09;19.80;;;10.27;;
36575;SDS011;45700;50.930;5.168;2022-09-24T05:42:10;20.52;;;10.60;;
36575;SDS011;45700;50.930;5.168;2022-09-24T05:46:15;18.35;;;9.88;;
36575;SDS011;45700;50.930;5.168;2022-09-24T05:50:16;22.02;;;9.98;;
36575;SDS011;45700;50.930;5.168;2022-09-24T05:54:17;17.40;;;10.23;;
36575;SDS011;45700;50.930;5.168;2022-09-24T05:58:18;19.15;;;10.60;;
36575;SDS011;45700;50.930;5.168;2022-09-24T06:02:19;19.33;;;10.90;;
36575;SDS011;45700;50.930;5.168;2022-09-24T06:06:20;19.27;;;9.85;;
36575;SDS011;45700;50.930;5.168;2022-09-24T06:10:21;21.38;;;10.32;;
36575;SDS011;45700;50.930;5.168;2022-09-24T06:14:25;19.85;;;10.40;;
36575;SDS011;45700;50.930;5.168;2022-09-24T06:18:27;20.15;;;10.82;;
36575;SDS011;45700;50.930;5.168;2022-09-24T06:22:28;18.63;;;9.68;;
36575;SDS011;45700;50.930;5.168;2022-09-24T06:26:29;17.08;;;10.05;;
36575;SDS011;45700;50.930;5.168;2022-09-24T06:30:32;19.13;;;9.93;;
36575;SDS011;45700;50.930;5.168;2022-09-24T06:34:34;21.90;;;10.10;;
36575;SDS011;45700;50.930;5.168;2022-09-24T06:38:35;18.98;;;9.35;;
36575;SDS011;45700;50.930;5.168;2022-09-24T06:42:38;18.00;;;9.60;;
36575;SDS011;45700;50.930;5.168;2022-09-24T06:46:39;18.38;;;9.27;;
36575;SDS011;45700;50.930;5.168;2022-09-24T06:50:41;17.90;;;10.57;;
36575;SDS011;45700;50.930;5.168;2022-09-24T06:54:42;17.10;;;9.27;;
36575;SDS011;45700;50.930;5.168;2022-09-24T06:58:43;17.25;;;9.13;;
36575;SDS011;45700;50.930;5.168;2022-09-24T07:02:49;18.40;;;9.50;;
36575;SDS011;45700;50.930;5.168;2022-09-24T07:06:51;18.08;;;9.88;;
36575;SDS011;45700;50.930;5.168;2022-09-24T07:11:11;21.77;;;10.50;;
36575;SDS011;45700;50.930;5.168;2022-09-24T07:15:12;17.98;;;10.10;;
36575;SDS011;45700;50.930;5.168;2022-09-24T07:19:13;17.45;;;10.18;;
36575;SDS011;45700;50.930;5.168;2022-09-24T07:23:14;17.45;;;9.32;;
36575;SDS011;45700;50.930;5.168;2022-09-24T07:27:17;18.42;;;10.07;;
36575;SDS011;45700;50.930;5.168;2022-09-24T07:31:20;19.40;;;9.65;;
36575;SDS011;45700;50.930;5.168;2022-09-24T07:35:21;19.10;;;10.52;;
36575;SDS011;45700;50.930;5.168;2022-09-24T07:39:22;20.50;;;10.25;;
36575;SDS011;45700;50.930;5.168;2022-09-24T07:43:24;18.30;;;9.48;;
36575;SDS011;45700;50.930;5.168;2022-09-24T07:47:25;18.77;;;9.40;;
36575;SDS011;45700;50.930;5.168;2022-09-24T07:51:27;18.70;;;9.05;;
36575;SDS011;45700;50.930;5.168;2022-09-24T07:55:28;19.55;;;9.48;;
36575;SDS011;45700;50.930;5.168;2022-09-24T07:59:29;19.77;;;9.43;;
36575;SDS011;45700;50.930;5.168;2022-09-24T08:03:31;19.90;;;9.50;;
36575;SDS011;45700;50.930;5.168;2022-09-24T08:07:32;21.48;;;9.50;;
36575;SDS011;45700;50.930;5.168;2022-09-24T08:11:33;21.02;;;10.18;;
36575;SDS011;45700;50.930;5.168;2022-09-24T08:15:34;18.83;;;8.73;;
36575;SDS011;45700;50.930;5.168;2022-09-24T08:19:35;18.75;;;8.98;;
36575;SDS011;45700;50.930;5.168;2022-09-24T08:23:38;18.63;;;8.98;;
36575;SDS011;45700;50.930;5.168;2022-09-24T08:27:39;19.25;;;8.93;;
36575;SDS011;45700;50.930;5.168;2022-09-24T08:31:40;21.05;;;9.07;;
36575;SDS011;45700;50.930;5.168;2022-09-24T08:35:41;17.40;;;8.80;;
36575;SDS011;45700;50.930;5.168;2022-09-24T08:39:42;17.33;;;8.80;;
36575;SDS011;45700;50.930;5.168;2022-09-24T08:47:48;18.48;;;8.77;;
36575;SDS011;45700;50.930;5.168;2022-09-24T08:51:55;17.10;;;8.30;;
36575;SDS011;45700;50.930;5.168;2022-09-24T08:55:58;19.65;;;9.40;;
36575;SDS011;45700;50.930;5.168;2022-09-24T08:59:59;18.33;;;9.27;;
36575;SDS011;45700;50.930;5.168;2022-09-24T09:08:10;19.40;;;9.70;;
36575;SDS011;45700;50.930;5.168;2022-09-24T09:12:14;18.75;;;9.00;;
36575;SDS011;45700;50.930;5.168;2022-09-24T09:16:24;16.75;;;8.95;;
36575;SDS011;45700;50.930;5.168;2022-09-24T09:20:29;18.65;;;9.43;;
36575;SDS011;45700;50.930;5.168;2022-09-24T09:24:35;19.30;;;8.60;;
36575;SDS011;45700;50.930;5.168;2022-09-24T09:28:39;18.37;;;10.00;;
36575;SDS011;45700;50.930;5.168;2022-09-24T09:37:03;18.33;;;9.15;;
36575;SDS011;45700;50.930;5.168;2022-09-24T09:41:28;16.85;;;9.15;;
36575;SDS011;45700;50.930;5.168;2022-09-24T09:49:51;18.13;;;8.77;;
36575;SDS011;45700;50.930;5.168;2022-09-24T09:54:00;17.90;;;8.90;;
36575;SDS011;45700;50.930;5.168;2022-09-24T09:58:35;19.58;;;9.55;;
36575;SDS011;45700;50.930;5.168;2022-09-24T10:02:32;18.08;;;8.75;;
36575;SDS011;45700;50.930;5.168;2022-09-24T10:06:34;16.75;;;8.73;;
36575;SDS011;45700;50.930;5.168;2022-09-24T10:10:35;16.50;;;8.75;;
36575;SDS011;45700;50.930;5.168;2022-09-24T10:14:37;19.50;;;9.13;;
36575;SDS011;45700;50.930;5.168;2022-09-24T10:22:39;16.25;;;8.73;;
36575;SDS011;45700;50.930;5.168;2022-09-24T10:26:41;17.00;;;8.93;;
36575;SDS011;45700;50.930;5.168;2022-09-24T10:34:57;15.60;;;8.88;;
36575;SDS011;45700;50.930;5.168;2022-09-24T10:39:03;16.73;;;9.23;;
36575;SDS011;45700;50.930;5.168;2022-09-24T10:43:13;17.70;;;8.70;;
36575;SDS011;45700;50.930;5.168;2022-09-24T10:55:41;16.98;;;8.25;;
36575;SDS011;45700;50.930;5.168;2022-09-24T11:08:16;18.95;;;8.60;;
36575;SDS011;45700;50.930;5.168;2022-09-24T11:20:38;19.77;;;9.85;;
36575;SDS011;45700;50.930;5.168;2022-09-24T11:24:46;16.52;;;7.93;;
36575;SDS011;45700;50.930;5.168;2022-09-24T11:29:05;14.73;;;7.97;;
36575;SDS011;45700;50.930;5.168;2022-09-24T11:33:22;18.33;;;9.38;;
36575;SDS011;45700;50.930;5.168;2022-09-24T11:37:44;17.45;;;8.18;;
36575;SDS011;45700;50.930;5.168;2022-09-24T11:41:53;19.40;;;9.57;;
36575;SDS011;45700;50.930;5.168;2022-09-24T11:46:10;18.85;;;9.63;;
36575;SDS011;45700;50.930;5.168;2022-09-24T11:50:19;16.38;;;7.78;;
36575;SDS011;45700;50.930;5.168;2022-09-24T11:54:31;18.88;;;8.35;;
36575;SDS011;45700;50.930;5.168;2022-09-24T11:58:36;16.10;;;8.23;;
36575;SDS011;45700;50.930;5.168;2022-09-24T12:06:43;14.52;;;7.65;;
36575;SDS011;45700;50.930;5.168;2022-09-24T12:10:51;14.40;;;7.47;;
36575;SDS011;45700;50.930;5.168;2022-09-24T12:14:59;16.88;;;7.97;;
36575;SDS011;45700;50.930;5.168;2022-09-24T12:23:10;17.98;;;8.32;;
36575;SDS011;45700;50.930;5.168;2022-09-24T12:27:13;18.08;;;7.82;;
36575;SDS011;45700;50.930;5.168;2022-09-24T12:31:24;16.35;;;8.85;;
36575;SDS011;45700;50.930;5.168;2022-09-24T12:35:53;17.83;;;8.40;;
36575;SDS011;45700;50.930;5.168;2022-09-24T12:44:06;15.73;;;8.70;;
36575;SDS011;45700;50.930;5.168;2022-09-24T12:48:13;16.88;;;8.60;;
36575;SDS011;45700;50.930;5.168;2022-09-24T12:52:16;17.30;;;8.50;;
36575;SDS011;45700;50.930;5.168;2022-09-24T12:56:21;15.05;;;8.27;;
36575;SDS011;45700;50.930;5.168;2022-09-24T13:00:43;16.00;;;8.40;;
36575;SDS011;45700;50.930;5.168;2022-09-24T13:04:50;17.25;;;8.05;;
36575;SDS011;45700;50.930;5.168;2022-09-24T13:09:03;17.98;;;8.68;;
36575;SDS011;45700;50.930;5.168;2022-09-24T13:13:23;19.00;;;8.38;;
36575;SDS011;45700;50.930;5.168;2022-09-24T13:17:25;15.93;;;8.77;;
36575;SDS011;45700;50.930;5.168;2022-09-24T13:21:27;16.83;;;7.80;;
36575;SDS011;45700;50.930;5.168;2022-09-24T13:25:29;16.17;;;8.35;;
36575;SDS011;45700;50.930;5.168;2022-09-24T13:29:35;16.95;;;8.57;;
36575;SDS011;45700;50.930;5.168;2022-09-24T13:33:43;17.13;;;8.88;;
36575;SDS011;45700;50.930;5.168;2022-09-24T13:37:49;17.45;;;8.88;;
36575;SDS011;45700;50.930;5.168;2022-09-24T13:41:56;11.90;;;6.40;;
36575;SDS011;45700;50.930;5.168;2022-09-24T13:45:59;12.02;;;6.75;;
36575;SDS011;45700;50.930;5.168;2022-09-24T13:54:06;9.07;;;4.78;;
36575;SDS011;45700;50.930;5.168;2022-09-24T14:02:27;8.85;;;4.90;;
36575;SDS011;45700;50.930;5.168;2022-09-24T14:06:41;10.93;;;6.22;;
36575;SDS011;45700;50.930;5.168;2022-09-24T14:10:43;9.57;;;6.22;;
36575;SDS011;45700;50.930;5.168;2022-09-24T14:14:51;8.32;;;5.05;;
36575;SDS011;45700;50.930;5.168;2022-09-24T14:18:59;9.77;;;4.82;;
36575;SDS011;45700;50.930;5.168;2022-09-24T14:23:01;8.60;;;4.95;;
36575;SDS011;45700;50.930;5.168;2022-09-24T14:27:07;10.10;;;5.32;;
36575;SDS011;45700;50.930;5.168;2022-09-24T14:31:09;11.70;;;6.30;;
36575;SDS011;45700;50.930;5.168;2022-09-24T14:35:17;12.80;;;6.72;;
36575;SDS011;45700;50.930;5.168;2022-09-24T14:39:19;13.02;;;6.97;;
36575;SDS011;45700;50.930;5.168;2022-09-24T14:43:23;11.52;;;6.28;;
36575;SDS011;45700;50.930;5.168;2022-09-24T14:47:31;13.95;;;7.40;;
36575;SDS011;45700;50.930;5.168;2022-09-24T14:51:32;13.60;;;7.13;;
36575;SDS011;45700;50.930;5.168;2022-09-24T14:55:40;14.10;;;7.10;;
36575;SDS011;45700;50.930;5.168;2022-09-24T14:59:45;12.73;;;6.63;;
36575;SDS011;45700;50.930;5.168;2022-09-24T15:03:47;15.27;;;6.93;;
36575;SDS011;45700;50.930;5.168;2022-09-24T15:07:49;12.35;;;6.35;;
36575;SDS011;45700;50.930;5.168;2022-09-24T15:11:50;11.75;;;5.88;;
36575;SDS011;45700;50.930;5.168;2022-09-24T15:16:00;11.20;;;5.93;;
36575;SDS011;45700;50.930;5.168;2022-09-24T15:20:02;11.57;;;6.35;;
36575;SDS011;45700;50.930;5.168;2022-09-24T15:24:04;10.02;;;5.53;;
36575;SDS011;45700;50.930;5.168;2022-09-24T15:28:09;11.15;;;5.80;;
36575;SDS011;45700;50.930;5.168;2022-09-24T15:32:15;10.98;;;5.45;;
36575;SDS011;45700;50.930;5.168;2022-09-24T15:36:16;11.77;;;5.45;;
36575;SDS011;45700;50.930;5.168;2022-09-24T15:40:21;10.73;;;6.22;;
36575;SDS011;45700;50.930;5.168;2022-09-24T15:44:23;9.13;;;5.70;;
36575;SDS011;45700;50.930;5.168;2022-09-24T15:48:25;11.68;;;6.30;;
36575;SDS011;45700;50.930;5.168;2022-09-24T15:52:26;11.32;;;5.97;;
36575;SDS011;45700;50.930;5.168;2022-09-24T15:56:28;10.98;;;5.80;;
36575;SDS011;45700;50.930;5.168;2022-09-24T16:00:29;10.27;;;5.07;;
36575;SDS011;45700;50.930;5.168;2022-09-24T16:04:30;9.27;;;5.25;;
36575;SDS011;45700;50.930;5.168;2022-09-24T16:08:31;11.27;;;5.32;;
36575;SDS011;45700;50.930;5.168;2022-09-24T16:12:32;11.15;;;5.57;;
36575;SDS011;45700;50.930;5.168;2022-09-24T16:16:33;11.63;;;5.57;;
36575;SDS011;45700;50.930;5.168;2022-09-24T16:20:36;10.35;;;5.22;;
36575;SDS011;45700;50.930;5.168;2022-09-24T16:24:37;9.18;;;5.97;;
36575;SDS011;45700;50.930;5.168;2022-09-24T16:28:38;11.30;;;5.30;;
36575;SDS011;45700;50.930;5.168;2022-09-24T16:32:39;10.27;;;5.50;;
36575;SDS011;45700;50.930;5.168;2022-09-24T16:36:40;10.82;;;5.70;;
36575;SDS011;45700;50.930;5.168;2022-09-24T16:40:41;10.27;;;5.70;;
36575;SDS011;45700;50.930;5.168;2022-09-24T16:44:42;9.05;;;5.57;;
36575;SDS011;45700;50.930;5.168;2022-09-24T16:48:43;9.18;;;5.50;;
36575;SDS011;45700;50.930;5.168;2022-09-24T16:52:48;8.68;;;5.65;;
36575;SDS011;45700;50.930;5.168;2022-09-24T16:56:51;10.23;;;5.85;;
36575;SDS011;45700;50.930;5.168;2022-09-24T17:00:52;9.65;;;5.22;;
36575;SDS011;45700;50.930;5.168;2022-09-24T17:04:53;11.95;;;5.97;;
36575;SDS011;45700;50.930;5.168;2022-09-24T17:08:54;8.63;;;5.35;;
36575;SDS011;45700;50.930;5.168;2022-09-24T17:17:15;10.60;;;6.35;;
36575;SDS011;45700;50.930;5.168;2022-09-24T17:21:16;11.52;;;6.80;;
36575;SDS011;45700;50.930;5.168;2022-09-24T17:25:17;11.75;;;6.72;;
36575;SDS011;45700;50.930;5.168;2022-09-24T17:29:18;12.77;;;6.82;;
36575;SDS011;45700;50.930;5.168;2022-09-24T17:33:21;11.57;;;6.22;;
36575;SDS011;45700;50.930;5.168;2022-09-24T17:37:22;12.15;;;6.75;;
36575;SDS011;45700;50.930;5.168;2022-09-24T17:41:23;12.52;;;7.00;;
36575;SDS011;45700;50.930;5.168;2022-09-24T17:45:24;12.48;;;6.55;;
36575;SDS011;45700;50.930;5.168;2022-09-24T17:49:25;12.10;;;6.43;;
36575;SDS011;45700;50.930;5.168;2022-09-24T17:53:28;11.15;;;6.68;;
36575;SDS011;45700;50.930;5.168;2022-09-24T17:57:30;12.35;;;6.75;;
36575;SDS011;45700;50.930;5.168;2022-09-24T18:01:31;11.25;;;6.78;;
36575;SDS011;45700;50.930;5.168;2022-09-24T18:05:34;10.75;;;6.15;;
36575;SDS011;45700;50.930;5.168;2022-09-24T18:09:35;10.82;;;6.90;;
36575;SDS011;45700;50.930;5.168;2022-09-24T18:13:36;9.88;;;5.95;;
36575;SDS011;45700;50.930;5.168;2022-09-24T18:17:37;12.50;;;6.97;;
36575;SDS011;45700;50.930;5.168;2022-09-24T18:21:38;11.90;;;6.85;;
36575;SDS011;45700;50.930;5.168;2022-09-24T18:25:39;10.50;;;6.45;;
36575;SDS011;45700;50.930;5.168;2022-09-24T18:29:40;12.23;;;6.88;;
36575;SDS011;45700;50.930;5.168;2022-09-24T18:33:43;10.02;;;6.75;;
36575;SDS011;45700;50.930;5.168;2022-09-24T18:37:44;11.15;;;6.85;;
36575;SDS011;45700;50.930;5.168;2022-09-24T18:41:46;11.68;;;6.78;;
36575;SDS011;45700;50.930;5.168;2022-09-24T18:45:47;14.13;;;7.00;;
36575;SDS011;45700;50.930;5.168;2022-09-24T18:49:48;12.02;;;7.55;;
36575;SDS011;45700;50.930;5.168;2022-09-24T18:53:52;14.40;;;7.45;;
36575;SDS011;45700;50.930;5.168;2022-09-24T18:57:54;13.70;;;7.90;;
36575;SDS011;45700;50.930;5.168;2022-09-24T19:01:55;14.48;;;8.68;;
36575;SDS011;45700;50.930;5.168;2022-09-24T19:06:00;19.20;;;9.15;;
36575;SDS011;45700;50.930;5.168;2022-09-24T19:10:02;16.00;;;9.75;;
36575;SDS011;45700;50.930;5.168;2022-09-24T19:14:03;15.50;;;9.30;;
36575;SDS011;45700;50.930;5.168;2022-09-24T19:18:04;17.90;;;10.05;;
36575;SDS011;45700;50.930;5.168;2022-09-24T19:22:06;14.68;;;9.20;;
36575;SDS011;45700;50.930;5.168;2022-09-24T19:26:07;18.80;;;10.45;;
36575;SDS011;45700;50.930;5.168;2022-09-24T19:30:08;15.82;;;10.57;;
36575;SDS011;45700;50.930;5.168;2022-09-24T19:34:11;16.92;;;10.23;;
36575;SDS011;45700;50.930;5.168;2022-09-24T19:38:12;20.70;;;11.15;;
36575;SDS011;45700;50.930;5.168;2022-09-24T19:42:15;18.08;;;11.48;;
36575;SDS011;45700;50.930;5.168;2022-09-24T19:46:17;20.70;;;11.27;;
36575;SDS011;45700;50.930;5.168;2022-09-24T19:50:18;23.00;;;13.50;;
36575;SDS011;45700;50.930;5.168;2022-09-24T19:54:19;21.83;;;12.55;;
36575;SDS011;45700;50.930;5.168;2022-09-24T19:58:20;21.98;;;12.20;;
36575;SDS011;45700;50.930;5.168;2022-09-24T20:02:21;21.15;;;12.38;;
36575;SDS011;45700;50.930;5.168;2022-09-24T20:06:23;20.95;;;12.52;;
36575;SDS011;45700;50.930;5.168;2022-09-24T20:10:25;21.90;;;11.95;;
36575;SDS011;45700;50.930;5.168;2022-09-24T20:14:26;17.67;;;9.80;;
36575;SDS011;45700;50.930;5.168;2022-09-24T20:18:27;16.27;;;8.73;;
36575;SDS011;45700;50.930;5.168;2022-09-24T20:22:30;11.98;;;7.07;;
36575;SDS011;45700;50.930;5.168;2022-09-24T20:26:32;8.07;;;5.03;;
36575;SDS011;45700;50.930;5.168;2022-09-24T20:30:52;9.95;;;5.07;;
36575;SDS011;45700;50.930;5.168;2022-09-24T20:34:53;7.65;;;4.50;;
36575;SDS011;45700;50.930;5.168;2022-09-24T20:38:54;8.00;;;4.15;;
36575;SDS011;45700;50.930;5.168;2022-09-24T20:42:55;5.35;;;3.25;;
36575;SDS011;45700;50.930;5.168;2022-09-24T20:46:56;4.82;;;2.88;;
36575;SDS011;45700;50.930;5.168;2022-09-24T20:50:57;4.18;;;1.80;;
36575;SDS011;45700;50.930;5.168;2022-09-24T20:54:58;3.95;;;1.45;;
36575;SDS011;45700;50.930;5.168;2022-09-24T20:58:59;1.67;;;1.20;;
36575;SDS011;45700;50.930;5.168;2022-09-24T21:03:00;4.25;;;1.10;;
36575;SDS011;45700;50.930;5.168;2022-09-24T21:07:03;2.13;;;0.90;;
36575;SDS011;45700;50.930;5.168;2022-09-24T21:11:05;1.20;;;0.85;;
36575;SDS011;45700;50.930;5.168;2022-09-24T21:15:07;4.28;;;0.75;;
36575;SDS011;45700;50.930;5.168;2022-09-24T21:19:08;2.47;;;0.68;;
36575;SDS011;45700;50.930;5.168;2022-09-24T21:23:12;1.95;;;0.77;;
36575;SDS011;45700;50.930;5.168;2022-09-24T21:27:13;5.85;;;1.38;;
36575;SDS011;45700;50.930;5.168;2022-09-24T21:31:16;3.03;;;0.95;;
36575;SDS011;45700;50.930;5.168;2022-09-24T21:35:17;2.30;;;0.93;;
36575;SDS011;45700;50.930;5.168;2022-09-24T21:39:19;7.00;;;1.00;;
36575;SDS011;45700;50.930;5.168;2022-09-24T21:43:22;2.83;;;0.80;;
36575;SDS011;45700;50.930;5.168;2022-09-24T21:47:24;2.58;;;1.20;;
36575;SDS011;45700;50.930;5.168;2022-09-24T21:51:25;1.88;;;0.93;;
36575;SDS011;45700;50.930;5.168;2022-09-24T21:55:29;2.72;;;1.02;;
36575;SDS011;45700;50.930;5.168;2022-09-24T21:59:33;2.53;;;1.13;;
36575;SDS011;45700;50.930;5.168;2022-09-24T22:03:56;2.55;;;1.40;;
36575;SDS011;45700;50.930;5.168;2022-09-24T22:07:58;3.28;;;1.27;;
36575;SDS011;45700;50.930;5.168;2022-09-24T22:11:59;3.28;;;1.35;;
36575;SDS011;45700;50.930;5.168;2022-09-24T22:16:00;2.75;;;1.20;;
36575;SDS011;45700;50.930;5.168;2022-09-24T22:20:01;3.63;;;1.60;;
36575;SDS011;45700;50.930;5.168;2022-09-24T22:24:03;2.00;;;1.05;;
36575;SDS011;45700;50.930;5.168;2022-09-24T22:28:04;2.63;;;1.50;;
36575;SDS011;45700;50.930;5.168;2022-09-24T22:32:05;2.75;;;1.63;;
36575;SDS011;45700;50.930;5.168;2022-09-24T22:36:06;3.25;;;1.60;;
36575;SDS011;45700;50.930;5.168;2022-09-24T22:40:08;5.85;;;1.70;;
36575;SDS011;45700;50.930;5.168;2022-09-24T22:44:09;4.75;;;1.90;;
36575;SDS011;45700;50.930;5.168;2022-09-24T22:48:11;2.03;;;1.40;;
36575;SDS011;45700;50.930;5.168;2022-09-24T22:52:12;8.55;;;2.30;;
36575;SDS011;45700;50.930;5.168;2022-09-24T22:56:14;4.22;;;1.58;;
36575;SDS011;45700;50.930;5.168;2022-09-24T23:00:15;2.97;;;1.95;;
36575;SDS011;45700;50.930;5.168;2022-09-24T23:04:17;4.38;;;1.75;;
36575;SDS011;45700;50.930;5.168;2022-09-24T23:08:19;2.50;;;1.70;;
36575;SDS011;45700;50.930;5.168;2022-09-24T23:12:20;4.00;;;2.05;;
36575;SDS011;45700;50.930;5.168;2022-09-24T23:16:25;4.78;;;2.25;;
36575;SDS011;45700;50.930;5.168;2022-09-24T23:20:26;3.17;;;1.98;;
36575;SDS011;45700;50.930;5.168;2022-09-24T23:24:27;6.13;;;2.20;;
36575;SDS011;45700;50.930;5.168;2022-09-24T23:28:30;4.15;;;2.17;;
36575;SDS011;45700;50.930;5.168;2022-09-24T23:32:31;5.30;;;2.15;;
36575;SDS011;45700;50.930;5.168;2022-09-24T23:36:32;4.55;;;2.50;;
36575;SDS011;45700;50.930;5.168;2022-09-24T23:40:33;3.25;;;2.00;;
36575;SDS011;45700;50.930;5.168;2022-09-24T23:44:34;6.20;;;2.15;;
36575;SDS011;45700;50.930;5.168;2022-09-24T23:48:35;4.63;;;2.17;;
36575;SDS011;45700;50.930;5.168;2022-09-24T23:52:37;4.68;;;1.85;;
36575;SDS011;45700;50.930;5.168;2022-09-24T23:56:38;3.40;;;2.22;;
